createdAt,value
2023-10-23T00:00:20.402Z,8.10
2023-10-23T00:02:47.195Z,9.30
2023-10-23T00:05:14.127Z,9.40
2023-10-23T00:07:40.898Z,10.50
2023-10-23T00:10:10.214Z,11.77
2023-10-23T00:12:36.995Z,8.55
2023-10-23T00:15:04.418Z,12.55
2023-10-23T00:17:31.151Z,9.40
2023-10-23T00:19:57.949Z,10.68
2023-10-23T00:22:24.791Z,8.77
2023-10-23T00:24:51.537Z,9.35
2023-10-23T00:27:19.883Z,8.23
2023-10-23T00:29:46.866Z,9.60
2023-10-23T00:32:13.695Z,10.80
2023-10-23T00:34:40.485Z,10.52
2023-10-23T00:37:07.173Z,12.55
2023-10-23T00:39:33.995Z,10.00
2023-10-23T00:42:00.817Z,9.82
2023-10-23T00:44:28.947Z,9.07
2023-10-23T00:46:55.776Z,9.95
2023-10-23T00:49:22.540Z,11.02
2023-10-23T00:51:49.296Z,9.40
2023-10-23T00:54:16.058Z,8.85
2023-10-23T00:56:42.862Z,9.30
2023-10-23T00:59:09.694Z,10.10
2023-10-23T01:01:37.827Z,8.60
2023-10-23T01:04:05.109Z,7.40
2023-10-23T01:06:31.912Z,7.57
2023-10-23T01:08:58.666Z,8.95
2023-10-23T01:11:25.500Z,8.35
2023-10-23T01:13:52.232Z,7.53
2023-10-23T01:16:18.957Z,9.40
2023-10-23T01:18:47.141Z,7.95
2023-10-23T01:21:13.909Z,6.95
2023-10-23T01:23:42.296Z,8.70
2023-10-23T01:26:10.440Z,7.50
2023-10-23T01:28:37.196Z,9.55
2023-10-23T01:31:04.026Z,10.40
2023-10-23T01:33:30.973Z,8.15
2023-10-23T01:35:57.768Z,6.53
2023-10-23T01:38:24.611Z,8.65
2023-10-23T01:40:51.347Z,7.28
2023-10-23T01:43:19.438Z,10.05
2023-10-23T01:45:46.476Z,11.95
2023-10-23T01:48:13.340Z,12.20
2023-10-23T01:50:41.736Z,8.35
2023-10-23T01:53:08.694Z,10.00
2023-10-23T01:55:35.684Z,6.55
2023-10-23T01:58:02.371Z,7.63
2023-10-23T02:00:30.545Z,8.77
2023-10-23T02:02:57.484Z,7.85
2023-10-23T02:05:24.348Z,6.32
2023-10-23T02:07:51.074Z,7.38
2023-10-23T02:10:17.923Z,7.80
2023-10-23T02:12:44.728Z,7.25
2023-10-23T02:15:11.696Z,7.43
2023-10-23T02:17:40.017Z,7.68
2023-10-23T02:20:07.325Z,6.43
2023-10-23T02:22:34.134Z,8.40
2023-10-23T02:25:00.980Z,7.28
2023-10-23T02:27:27.931Z,7.13
2023-10-23T02:29:54.708Z,7.80
2023-10-23T02:32:21.455Z,8.00
2023-10-23T02:34:49.887Z,7.72
2023-10-23T02:37:16.671Z,9.23
2023-10-23T02:39:43.483Z,8.45
2023-10-23T02:42:10.262Z,11.52
2023-10-23T02:44:37.012Z,9.00
2023-10-23T02:47:04.281Z,9.35
2023-10-23T02:49:31.022Z,10.90
2023-10-23T02:51:59.181Z,13.40
2023-10-23T02:54:26.012Z,9.98
2023-10-23T02:56:52.782Z,10.80
2023-10-23T02:59:19.533Z,9.65
2023-10-23T03:01:46.270Z,9.27
2023-10-23T03:04:13.116Z,9.35
2023-10-23T03:06:39.982Z,8.65
2023-10-23T03:09:08.999Z,11.82
2023-10-23T03:11:36.795Z,10.30
2023-10-23T03:14:03.574Z,9.85
2023-10-23T03:16:30.436Z,10.80
2023-10-23T03:18:57.260Z,9.18
2023-10-23T03:21:24.082Z,9.02
2023-10-23T03:23:51.375Z,9.55
2023-10-23T03:26:19.637Z,8.68
2023-10-23T03:28:46.405Z,8.73
2023-10-23T03:31:13.157Z,11.15
2023-10-23T03:33:39.864Z,6.25
2023-10-23T03:36:06.776Z,7.38
2023-10-23T03:38:33.492Z,8.38
2023-10-23T03:41:00.379Z,8.88
2023-10-23T03:43:28.630Z,7.38
2023-10-23T03:45:55.735Z,7.50
2023-10-23T03:48:22.550Z,7.22
2023-10-23T03:50:49.431Z,9.55
2023-10-23T03:53:16.198Z,9.32
2023-10-23T03:55:43.025Z,10.30
2023-10-23T03:58:09.725Z,7.93
2023-10-23T04:00:37.984Z,8.27
2023-10-23T04:03:04.822Z,8.52
2023-10-23T04:05:31.583Z,6.57
2023-10-23T04:07:58.344Z,9.10
2023-10-23T04:10:25.052Z,10.90
2023-10-23T04:12:51.890Z,12.40
2023-10-23T04:15:18.644Z,8.98
2023-10-23T04:17:46.879Z,7.43
2023-10-23T04:20:13.686Z,7.55
2023-10-23T04:22:40.564Z,11.25
2023-10-23T04:25:07.777Z,8.25
2023-10-23T04:27:34.583Z,10.20
2023-10-23T04:30:01.403Z,6.85
2023-10-23T04:32:28.180Z,7.47
2023-10-23T04:34:56.328Z,8.20
2023-10-23T04:37:23.162Z,7.90
2023-10-23T04:39:49.952Z,8.13
2023-10-23T04:42:16.782Z,11.45
2023-10-23T04:44:43.480Z,8.38
2023-10-23T04:47:10.286Z,7.55
2023-10-23T04:49:37.281Z,7.68
2023-10-23T04:52:06.297Z,11.90
2023-10-23T04:54:33.053Z,10.85
2023-10-23T04:56:59.862Z,10.27
2023-10-23T04:59:26.660Z,9.88
2023-10-23T05:01:53.436Z,6.88
2023-10-23T05:04:20.248Z,10.65
2023-10-23T05:06:47.169Z,8.77
2023-10-23T05:09:15.310Z,8.68
2023-10-23T05:11:42.026Z,8.90
2023-10-23T05:14:08.802Z,11.02
2023-10-23T05:16:35.527Z,15.80
2023-10-23T05:19:02.331Z,16.17
2023-10-23T05:21:29.112Z,17.48
2023-10-23T05:23:55.875Z,17.42
2023-10-23T05:26:24.009Z,22.40
2023-10-23T05:28:51.127Z,20.98
2023-10-23T05:31:17.969Z,20.42
2023-10-23T05:33:44.803Z,20.92
2023-10-23T05:36:11.613Z,20.05
2023-10-23T05:38:38.536Z,17.30
2023-10-23T05:41:05.308Z,21.55
2023-10-23T05:43:33.469Z,15.55
2023-10-23T05:46:02.705Z,17.75
2023-10-23T05:48:29.608Z,20.00
2023-10-23T05:50:59.272Z,23.13
2023-10-23T05:53:26.006Z,16.38
2023-10-23T05:55:52.748Z,18.48
2023-10-23T05:58:19.875Z,14.60
2023-10-23T06:00:48.568Z,19.65
2023-10-23T06:03:15.336Z,24.33
2023-10-23T06:05:42.286Z,17.58
2023-10-23T06:08:09.049Z,24.08
2023-10-23T06:10:41.208Z,20.30
2023-10-23T06:13:08.010Z,22.83
2023-10-23T06:15:34.767Z,25.60
2023-10-23T06:18:02.974Z,24.60
2023-10-23T06:20:29.870Z,24.80
2023-10-23T06:22:56.639Z,23.42
2023-10-23T06:25:23.697Z,22.73
2023-10-23T06:27:50.496Z,23.55
2023-10-23T06:30:17.416Z,21.40
2023-10-23T06:32:44.150Z,24.10
2023-10-23T06:35:12.331Z,17.52
2023-10-23T06:37:39.061Z,15.30
2023-10-23T06:40:06.564Z,18.77
2023-10-23T06:42:33.521Z,16.77
2023-10-23T06:45:00.332Z,16.85
2023-10-23T06:47:27.147Z,15.80
2023-10-23T06:49:53.923Z,14.02
2023-10-23T06:52:22.058Z,17.55
2023-10-23T06:54:48.854Z,14.73
2023-10-23T06:57:15.577Z,13.07
2023-10-23T06:59:42.624Z,12.15
2023-10-23T07:02:09.520Z,12.38
2023-10-23T07:04:36.354Z,11.65
2023-10-23T07:07:11.204Z,13.75
2023-10-23T07:09:50.504Z,12.48
2023-10-23T07:12:17.301Z,14.07
2023-10-23T07:14:44.050Z,12.00
2023-10-23T07:17:10.844Z,10.52
2023-10-23T07:19:37.803Z,10.18
2023-10-23T07:22:04.789Z,10.55
2023-10-23T07:24:31.564Z,11.15
2023-10-23T07:26:59.711Z,7.10
2023-10-23T07:29:26.689Z,8.02
2023-10-23T07:31:53.419Z,8.75
2023-10-23T07:34:20.196Z,9.73
2023-10-23T07:36:46.973Z,7.10
2023-10-23T07:39:13.776Z,7.97
2023-10-23T07:41:40.637Z,7.55
2023-10-23T07:44:08.806Z,9.15
2023-10-23T07:46:35.688Z,9.88
2023-10-23T07:49:02.512Z,8.18
2023-10-23T07:51:29.386Z,10.15
2023-10-23T07:53:56.137Z,7.15
2023-10-23T07:56:23.075Z,6.88
2023-10-23T07:58:49.816Z,9.02
2023-10-23T08:01:18.133Z,5.68
2023-10-23T08:03:45.049Z,6.63
2023-10-23T08:06:12.363Z,6.32
2023-10-23T08:08:39.856Z,7.40
2023-10-23T08:11:07.958Z,8.00
2023-10-23T08:13:34.874Z,7.95
2023-10-23T08:16:01.936Z,5.82
2023-10-23T08:18:39.021Z,5.63
2023-10-23T08:21:11.430Z,7.10
2023-10-23T08:23:38.282Z,5.80
2023-10-23T08:26:05.018Z,6.88
2023-10-23T08:28:49.396Z,6.00
2023-10-23T08:31:34.183Z,7.40
2023-10-23T08:34:06.456Z,6.13
2023-10-23T08:36:33.475Z,5.07
2023-10-23T08:39:00.209Z,5.07
2023-10-23T08:41:27.141Z,4.28
2023-10-23T08:43:54.022Z,6.43
2023-10-23T08:46:20.789Z,5.93
2023-10-23T08:48:47.753Z,5.70
2023-10-23T08:51:15.912Z,5.22
2023-10-23T08:53:58.491Z,5.10
2023-10-23T08:56:35.019Z,3.50
2023-10-23T08:59:01.791Z,3.60
2023-10-23T09:01:29.176Z,4.65
2023-10-23T09:04:04.016Z,4.10
2023-10-23T09:06:33.228Z,2.03
2023-10-23T09:09:00.043Z,3.30
2023-10-23T09:11:37.975Z,2.10
2023-10-23T09:14:04.951Z,2.05
2023-10-23T09:16:31.794Z,3.17
2023-10-23T09:18:58.828Z,1.30
2023-10-23T09:21:25.839Z,2.30
2023-10-23T09:23:54.845Z,2.42
2023-10-23T09:26:21.708Z,1.60
2023-10-23T09:28:48.424Z,2.17
2023-10-23T09:31:15.282Z,2.47
2023-10-23T09:33:42.161Z,2.03
2023-10-23T09:36:08.867Z,5.95
2023-10-23T09:38:35.701Z,2.25
2023-10-23T09:41:04.016Z,5.43
2023-10-23T09:43:30.785Z,2.65
2023-10-23T09:45:57.584Z,4.78
2023-10-23T09:48:24.596Z,2.72
2023-10-23T09:50:51.471Z,2.53
2023-10-23T09:53:18.170Z,3.17
2023-10-23T09:55:45.210Z,2.60
2023-10-23T09:58:15.535Z,2.05
2023-10-23T10:00:45.545Z,2.95
2023-10-23T10:03:13.249Z,2.63
2023-10-23T10:05:45.576Z,2.45
2023-10-23T10:08:14.327Z,3.33
2023-10-23T10:10:41.085Z,1.63
2023-10-23T10:13:07.933Z,5.80
2023-10-23T10:15:36.088Z,2.47
2023-10-23T10:18:02.928Z,3.17
2023-10-23T10:20:29.729Z,5.43
2023-10-23T10:22:59.861Z,3.70
2023-10-23T10:25:26.846Z,1.45
2023-10-23T10:27:56.989Z,2.40
2023-10-23T10:30:41.887Z,2.25
2023-10-23T10:34:21.212Z,1.40
2023-10-23T10:35:58.833Z,1.58
2023-10-23T10:38:26.143Z,1.05
2023-10-23T10:40:57.414Z,2.35
2023-10-23T10:43:24.902Z,5.50
2023-10-23T10:45:53.144Z,2.38
2023-10-23T10:48:19.909Z,0.80
2023-10-23T10:50:46.638Z,2.03
2023-10-23T10:53:14.792Z,1.55
2023-10-23T10:55:41.939Z,1.60
2023-10-23T10:58:08.881Z,2.88
2023-10-23T11:00:36.220Z,1.77
2023-10-23T11:03:04.584Z,2.33
2023-10-23T11:05:31.545Z,1.90
2023-10-23T11:07:58.247Z,3.25
2023-10-23T11:10:24.973Z,3.05
2023-10-23T11:12:51.771Z,2.72
2023-10-23T11:15:18.792Z,1.38
2023-10-23T11:17:45.631Z,1.35
2023-10-23T11:20:14.825Z,3.05
2023-10-23T11:22:42.310Z,2.83
2023-10-23T11:25:09.226Z,2.65
2023-10-23T11:27:36.244Z,3.10
2023-10-23T11:30:03.144Z,2.03
2023-10-23T11:32:29.928Z,2.58
2023-10-23T11:35:00.408Z,2.80
2023-10-23T11:37:32.162Z,2.28
2023-10-23T11:40:02.733Z,3.85
2023-10-23T11:42:29.512Z,4.68
2023-10-23T11:44:58.700Z,1.67
2023-10-23T11:47:25.592Z,4.10
2023-10-23T11:49:52.456Z,3.80
2023-10-23T11:52:19.324Z,3.00
2023-10-23T11:54:47.497Z,3.88
2023-10-23T11:57:14.239Z,3.70
2023-10-23T11:59:41.078Z,2.90
2023-10-23T12:02:07.859Z,3.47
2023-10-23T12:04:34.728Z,3.88
2023-10-23T12:07:01.707Z,3.55
2023-10-23T12:09:28.494Z,4.32
2023-10-23T12:11:56.799Z,3.47
2023-10-23T12:14:23.548Z,8.07
2023-10-23T12:16:50.380Z,3.65
2023-10-23T12:19:17.253Z,8.20
2023-10-23T12:21:44.073Z,3.45
2023-10-23T12:24:10.813Z,5.57
2023-10-23T12:26:37.593Z,2.83
2023-10-23T12:29:05.865Z,4.72
2023-10-23T12:31:32.640Z,7.63
2023-10-23T12:34:19.514Z,3.85
2023-10-23T12:36:46.518Z,5.00
2023-10-23T12:39:13.299Z,6.20
2023-10-23T12:41:40.040Z,4.57
2023-10-23T12:44:08.262Z,4.10
2023-10-23T12:46:35.072Z,7.10
2023-10-23T12:49:01.936Z,4.22
2023-10-23T12:51:28.688Z,4.60
2023-10-23T12:53:55.413Z,5.00
2023-10-23T12:56:22.226Z,3.95
2023-10-23T12:58:48.942Z,3.33
2023-10-23T13:01:17.161Z,7.90
2023-10-23T13:03:44.159Z,6.70
2023-10-23T13:06:10.972Z,5.85
2023-10-23T13:08:37.695Z,9.00
2023-10-23T13:11:04.471Z,3.75
2023-10-23T13:13:31.248Z,7.38
2023-10-23T13:15:58.058Z,6.85
2023-10-23T13:18:26.251Z,3.45
2023-10-23T13:21:32.549Z,4.20
2023-10-23T13:23:39.700Z,5.57
2023-10-23T13:26:13.824Z,2.72
2023-10-23T13:28:41.226Z,3.40
2023-10-23T13:31:08.076Z,2.88
2023-10-23T13:33:36.354Z,2.50
2023-10-23T13:36:03.526Z,8.30
2023-10-23T13:38:30.651Z,4.20
2023-10-23T13:40:57.402Z,9.23
2023-10-23T13:43:24.193Z,7.00
2023-10-23T13:45:51.193Z,5.35
2023-10-23T13:48:18.012Z,3.05
2023-10-23T13:50:46.150Z,4.30
2023-10-23T13:53:12.846Z,3.60
2023-10-23T13:55:39.660Z,7.55
2023-10-23T13:58:06.451Z,3.35
2023-10-23T14:00:33.242Z,7.03
2023-10-23T14:03:00.019Z,3.15
2023-10-23T14:05:26.924Z,6.57
2023-10-23T14:07:55.078Z,4.10
2023-10-23T14:10:22.194Z,6.43
2023-10-23T14:12:49.131Z,4.90
2023-10-23T14:15:15.900Z,2.70
2023-10-23T14:17:42.680Z,4.15
2023-10-23T14:20:10.985Z,5.68
2023-10-23T14:22:37.742Z,4.78
2023-10-23T14:25:06.971Z,5.78
2023-10-23T14:27:33.725Z,6.10
2023-10-23T14:30:00.604Z,5.40
2023-10-23T14:32:27.408Z,3.33
2023-10-23T14:34:54.128Z,7.97
2023-10-23T14:37:20.900Z,4.13
2023-10-23T14:39:47.659Z,4.18
2023-10-23T14:42:15.820Z,9.38
2023-10-23T14:44:42.550Z,19.80
2023-10-23T14:47:09.846Z,19.13
2023-10-23T14:49:36.730Z,7.72
2023-10-23T14:52:03.821Z,7.00
2023-10-23T14:54:30.702Z,6.97
2023-10-23T14:56:57.478Z,7.72
2023-10-23T14:59:25.618Z,6.70
2023-10-23T15:01:52.505Z,6.10
2023-10-23T15:04:19.446Z,5.57
2023-10-23T15:06:46.233Z,8.50
2023-10-23T15:09:13.165Z,6.78
2023-10-23T15:11:39.995Z,8.95
2023-10-23T15:14:06.806Z,6.40
2023-10-23T15:16:36.746Z,7.53
2023-10-23T15:19:04.304Z,9.20
2023-10-23T15:21:31.187Z,9.40
2023-10-23T15:23:57.986Z,7.38
2023-10-23T15:26:24.749Z,7.10
2023-10-23T15:28:51.506Z,5.45
2023-10-23T15:31:18.346Z,6.97
2023-10-23T15:33:46.599Z,8.40
2023-10-23T15:36:13.384Z,5.72
2023-10-23T15:38:40.230Z,11.55
2023-10-23T15:41:07.522Z,11.98
2023-10-23T15:43:34.487Z,13.23
2023-10-23T15:46:01.359Z,11.48
2023-10-23T15:48:28.127Z,12.10
2023-10-23T15:50:57.180Z,18.20
2023-10-23T15:53:23.949Z,19.00
2023-10-23T15:55:50.731Z,120.38
2023-10-23T15:58:17.527Z,53.28
2023-10-23T16:00:44.327Z,136.20
2023-10-23T16:03:11.255Z,48.05
2023-10-23T16:05:38.342Z,38.45
2023-10-23T16:08:06.668Z,28.50
2023-10-23T16:10:33.724Z,23.52
2023-10-23T16:13:02.208Z,31.13
2023-10-23T16:15:29.004Z,31.48
2023-10-23T16:17:55.881Z,26.90
2023-10-23T16:20:22.704Z,29.90
2023-10-23T16:22:49.483Z,24.60
2023-10-23T16:25:20.529Z,18.63
2023-10-23T16:27:47.274Z,15.52
2023-10-23T16:30:14.338Z,22.08
2023-10-23T16:32:41.164Z,22.45
2023-10-23T16:35:08.525Z,17.80
2023-10-23T16:37:35.329Z,23.95
2023-10-23T16:40:02.158Z,22.35
2023-10-23T16:42:30.365Z,26.63
2023-10-23T16:44:57.157Z,38.45
2023-10-23T16:47:24.263Z,38.00
2023-10-23T16:49:52.417Z,32.08
2023-10-23T16:52:19.232Z,36.72
2023-10-23T16:54:47.769Z,35.10
2023-10-23T16:57:18.993Z,45.30
2023-10-23T16:59:48.443Z,57.75
2023-10-23T17:02:15.254Z,44.50
2023-10-23T17:04:42.024Z,42.45
2023-10-23T17:07:11.254Z,37.50
2023-10-23T17:09:39.948Z,27.05
2023-10-23T17:12:09.721Z,31.38
2023-10-23T17:14:36.516Z,107.03
2023-10-23T17:17:04.775Z,167.32
2023-10-23T17:19:31.695Z,100.13
2023-10-23T17:21:58.501Z,81.45
2023-10-23T17:24:25.311Z,88.43
2023-10-23T17:26:52.086Z,77.68
2023-10-23T17:29:18.920Z,67.55
2023-10-23T17:31:45.805Z,100.20
2023-10-23T17:34:14.121Z,77.57
2023-10-23T17:36:43.423Z,105.45
2023-10-23T17:39:10.147Z,100.10
2023-10-23T17:41:41.145Z,112.68
2023-10-23T17:44:10.704Z,96.15
2023-10-23T17:46:37.555Z,90.38
2023-10-23T17:49:06.752Z,90.20
2023-10-23T17:51:34.813Z,74.88
2023-10-23T17:54:05.394Z,73.68
2023-10-23T17:56:34.575Z,79.05
2023-10-23T17:59:03.545Z,65.93
2023-10-23T18:01:30.434Z,69.25
2023-10-23T18:03:57.282Z,64.68
2023-10-23T18:06:24.399Z,66.90
2023-10-23T18:08:53.688Z,65.13
2023-10-23T18:11:22.954Z,63.92
2023-10-23T18:13:51.273Z,62.50
2023-10-23T18:16:18.164Z,68.45
2023-10-23T18:18:45.039Z,64.90
2023-10-23T18:21:11.877Z,69.03
2023-10-23T18:23:38.632Z,65.85
2023-10-23T18:26:06.964Z,67.63
2023-10-23T18:28:33.955Z,63.85
2023-10-23T18:31:00.987Z,61.47
2023-10-23T18:33:30.806Z,56.92
2023-10-23T18:35:57.554Z,46.28
2023-10-23T18:38:24.350Z,42.22
2023-10-23T18:40:51.373Z,34.72
2023-10-23T18:43:19.542Z,30.08
2023-10-23T18:45:46.592Z,28.85
2023-10-23T18:48:13.637Z,33.70
2023-10-23T18:50:40.435Z,28.10
2023-10-23T18:53:07.182Z,30.25
2023-10-23T18:55:34.053Z,34.08
2023-10-23T18:58:02.448Z,29.40
2023-10-23T19:00:30.619Z,27.27
2023-10-23T19:03:00.601Z,25.52
2023-10-23T19:05:27.428Z,24.40
2023-10-23T19:07:54.294Z,24.17
2023-10-23T19:10:21.179Z,21.95
2023-10-23T19:12:50.095Z,24.80
2023-10-23T19:15:17.176Z,22.90
2023-10-23T19:17:45.524Z,27.85
2023-10-23T19:20:17.498Z,24.45
2023-10-23T19:22:44.237Z,20.70
2023-10-23T19:25:11.050Z,21.98
2023-10-23T19:27:37.921Z,23.55
2023-10-23T19:30:05.966Z,20.38
2023-10-23T19:32:35.527Z,21.58
2023-10-23T19:35:04.515Z,24.35
2023-10-23T19:37:31.940Z,22.20
2023-10-23T19:39:59.285Z,20.52
2023-10-23T19:42:27.101Z,19.13
2023-10-23T19:44:57.108Z,20.48
2023-10-23T19:47:24.587Z,22.63
2023-10-23T19:49:51.913Z,18.42
2023-10-23T19:52:20.177Z,30.50
2023-10-23T19:54:49.824Z,24.55
2023-10-23T19:57:18.482Z,27.10
2023-10-23T19:59:45.295Z,30.90
2023-10-23T20:02:12.089Z,33.33
2023-10-23T20:04:39.118Z,37.80
2023-10-23T20:07:06.007Z,37.15
2023-10-23T20:09:34.220Z,35.25
2023-10-23T20:12:00.969Z,46.15
2023-10-23T20:14:27.749Z,37.60
2023-10-23T20:16:54.641Z,41.45
2023-10-23T20:19:21.489Z,37.33
2023-10-23T20:21:48.277Z,35.88
2023-10-23T20:24:15.298Z,41.15
2023-10-23T20:26:43.474Z,32.60
2023-10-23T20:29:10.212Z,31.88
2023-10-23T20:31:37.066Z,36.83
2023-10-23T20:34:03.935Z,34.47
2023-10-23T20:36:30.738Z,29.15
2023-10-23T20:38:57.515Z,34.45
2023-10-23T20:41:24.210Z,27.92
2023-10-23T20:43:52.291Z,30.10
2023-10-23T20:46:19.260Z,31.65
2023-10-23T20:48:46.116Z,26.02
2023-10-23T20:51:12.969Z,30.25
2023-10-23T20:53:39.749Z,26.13
2023-10-23T20:56:07.046Z,29.33
2023-10-23T20:58:33.840Z,31.15
2023-10-23T21:01:05.905Z,28.90
2023-10-23T21:03:32.818Z,27.33
2023-10-23T21:06:00.525Z,32.10
2023-10-23T21:08:27.224Z,30.17
2023-10-23T21:10:53.952Z,31.40
2023-10-23T21:13:20.704Z,27.98
2023-10-23T21:15:47.708Z,29.73
2023-10-23T21:18:15.970Z,34.92
2023-10-23T21:20:42.738Z,30.45
2023-10-23T21:23:09.555Z,35.33
2023-10-23T21:25:36.331Z,38.25
2023-10-23T21:28:03.239Z,35.30
2023-10-23T21:30:30.009Z,29.48
2023-10-23T21:32:56.763Z,37.20
2023-10-23T21:35:24.910Z,31.05
2023-10-23T21:37:51.647Z,28.58
2023-10-23T21:40:18.409Z,35.72
2023-10-23T21:42:45.166Z,30.95
2023-10-23T21:45:11.984Z,34.03
2023-10-23T21:47:38.985Z,34.03
2023-10-23T21:50:06.814Z,38.85
2023-10-23T21:52:35.774Z,36.30
2023-10-23T21:55:14.009Z,34.35
2023-10-23T21:57:46.753Z,33.53
2023-10-23T22:00:14.437Z,29.50
2023-10-23T22:02:41.813Z,34.85
2023-10-23T22:05:09.973Z,28.55
2023-10-23T22:07:38.735Z,32.85
2023-10-23T22:10:06.621Z,31.02
2023-10-23T22:12:33.994Z,28.10
2023-10-23T22:15:00.744Z,37.35
2023-10-23T22:17:27.575Z,31.27
2023-10-23T22:19:54.418Z,29.90
2023-10-23T22:22:21.160Z,24.33
2023-10-23T22:24:49.270Z,27.67
2023-10-23T22:27:16.078Z,30.90
2023-10-23T22:29:42.811Z,30.20
2023-10-23T22:32:09.525Z,30.00
2023-10-23T22:34:36.311Z,24.88
2023-10-23T22:37:55.676Z,27.88
2023-10-23T22:39:51.178Z,25.50
2023-10-23T22:42:17.854Z,27.65
2023-10-23T22:44:44.569Z,26.08
2023-10-23T22:47:11.532Z,23.55
2023-10-23T22:49:38.863Z,22.33
2023-10-23T22:52:06.470Z,23.15
2023-10-23T22:54:34.014Z,25.73
2023-10-23T22:57:03.977Z,29.83
2023-10-23T22:59:31.257Z,20.65
2023-10-23T23:01:58.705Z,24.98
2023-10-23T23:04:26.367Z,24.33
2023-10-23T23:06:53.310Z,22.45
2023-10-23T23:09:20.399Z,24.25
2023-10-23T23:11:47.557Z,23.90
2023-10-23T23:14:16.300Z,21.17
2023-10-23T23:16:43.142Z,21.02
2023-10-23T23:19:11.833Z,23.90
2023-10-23T23:21:39.141Z,20.73
2023-10-23T23:24:06.963Z,20.95
2023-10-23T23:26:33.993Z,19.80
2023-10-23T23:29:00.740Z,15.98
2023-10-23T23:31:28.954Z,18.17
2023-10-23T23:33:55.750Z,22.73
2023-10-23T23:36:22.461Z,17.17
2023-10-23T23:38:49.205Z,18.77
2023-10-23T23:41:15.934Z,18.05
2023-10-23T23:43:42.681Z,20.52
2023-10-23T23:46:09.569Z,16.58
2023-10-23T23:48:37.678Z,23.30
2023-10-23T23:51:04.401Z,22.83
2023-10-23T23:53:31.230Z,20.15
2023-10-23T23:55:57.949Z,14.88
2023-10-23T23:58:24.707Z,19.45
